Time;durP1;ratioP1;P1;durP2;ratioP2;P2;SDS_P1;SDS_P2;PMS_P1;PMS_P2;Temp;Humidity;BMP_temperature;BMP_pressure;BME280_temperature;BME280_humidity;BME280_pressure;Samples;Min_cycle;Max_cycle;Signal;HPM_P1;HPM_P2
2022/05/11 00:01:31;;;;;;;23.98;3.53;;;;;;;;;;5071943;28;20071;-64
2022/05/11 00:03:58;;;;;;;25.35;3.60;;;;;;;;;;5071969;28;20493;-64
2022/05/11 00:06:25;;;;;;;24.40;3.50;;;;;;;;;;5070570;28;20048;-64
2022/05/11 00:08:52;;;;;;;30.23;4.30;;;;;;;;;;5071635;28;20539;-65
2022/05/11 00:11:18;;;;;;;19.73;3.65;;;;;;;;;;5072135;28;20054;-64
2022/05/11 00:13:44;;;;;;;24.60;3.78;;;;;;;;;;5071162;28;20032;-64
2022/05/11 00:16:10;;;;;;;21.88;3.28;;;;;;;;;;5071696;28;20082;-64
2022/05/11 00:18:37;;;;;;;24.63;3.75;;;;;;;;;;5071506;28;20024;-64
2022/05/11 00:21:03;;;;;;;21.25;4.00;;;;;;;;;;5070939;28;20036;-63
2022/05/11 00:23:29;;;;;;;27.15;3.50;;;;;;;;;;5071151;28;20123;-63
2022/05/11 00:25:56;;;;;;;28.23;4.72;;;;;;;;;;5071434;28;20479;-64
2022/05/11 00:28:22;;;;;;;24.50;4.78;;;;;;;;;;5071444;28;20032;-63
2022/05/11 00:30:48;;;;;;;31.00;4.95;;;;;;;;;;5070538;28;20028;-63
2022/05/11 00:33:15;;;;;;;25.88;4.75;;;;;;;;;;5071317;28;20024;-63
2022/05/11 00:35:42;;;;;;;26.33;3.45;;;;;;;;;;5069283;28;20094;-64
2022/05/11 00:38:08;;;;;;;31.98;4.55;;;;;;;;;;5060024;28;20036;-64
2022/05/11 00:40:39;;;;;;;34.15;4.25;;;;;;;;;;5071324;28;20025;-63
2022/05/11 00:43:05;;;;;;;23.77;3.72;;;;;;;;;;5071230;28;20506;-63
2022/05/11 00:45:31;;;;;;;27.77;3.72;;;;;;;;;;5070423;28;20024;-63
2022/05/11 00:48:00;;;;;;;25.27;3.60;;;;;;;;;;5070332;28;20027;-63
2022/05/11 00:50:29;;;;;;;20.65;2.83;;;;;;;;;;5071136;28;20021;-63
2022/05/11 00:52:55;;;;;;;25.63;4.85;;;;;;;;;;5071230;28;20020;-63
2022/05/11 00:55:29;;;;;;;25.13;3.38;;;;;;;;;;5061092;28;20525;-64
2022/05/11 00:58:07;;;;;;;29.73;4.50;;;;;;;;;;5051201;28;20425;-64
2022/05/11 01:00:34;;;;;;;21.40;3.30;;;;;;;;;;5050962;28;20128;-64
2022/05/11 01:03:12;;;;;;;23.75;3.33;;;;;;;;;;5051219;28;20024;-63
2022/05/11 01:05:38;;;;;;;25.05;3.80;;;;;;;;;;5051763;28;20025;-64
2022/05/11 01:08:04;;;;;;;26.15;3.38;;;;;;;;;;5051032;28;20510;-63
2022/05/11 01:10:34;;;;;;;24.38;3.80;;;;;;;;;;5050940;28;20032;-63
2022/05/11 01:13:02;;;;;;;22.02;4.15;;;;;;;;;;5050970;28;20076;-63
2022/05/11 01:15:30;;;;;;;34.40;4.00;;;;;;;;;;5050881;28;20042;-63
2022/05/11 01:17:57;;;;;;;23.65;4.10;;;;;;;;;;5050931;28;20531;-63
2022/05/11 01:20:25;;;;;;;16.02;2.70;;;;;;;;;;5053818;28;20104;-63
2022/05/11 01:23:00;;;;;;;26.55;3.90;;;;;;;;;;5050604;28;20086;-63
2022/05/11 01:25:26;;;;;;;23.02;3.00;;;;;;;;;;5050580;28;20123;-63
2022/05/11 01:28:00;;;;;;;24.90;3.58;;;;;;;;;;5050554;28;20029;-63
2022/05/11 01:30:26;;;;;;;21.50;3.38;;;;;;;;;;5050519;28;20464;-65
2022/05/11 01:32:54;;;;;;;27.65;4.07;;;;;;;;;;5051544;28;20037;-64
2022/05/11 01:35:20;;;;;;;29.83;3.33;;;;;;;;;;5054804;28;20452;-64
2022/05/11 01:37:53;;;;;;;24.55;3.05;;;;;;;;;;5056587;28;20104;-64
2022/05/11 01:40:19;;;;;;;21.85;3.00;;;;;;;;;;5054531;28;20475;-65
2022/05/11 01:42:48;;;;;;;26.08;3.95;;;;;;;;;;5054721;28;20033;-65
2022/05/11 01:45:14;;;;;;;26.25;3.63;;;;;;;;;;5054840;28;20464;-64
2022/05/11 01:47:41;;;;;;;21.85;2.60;;;;;;;;;;5054749;28;20028;-64
2022/05/11 01:50:07;;;;;;;27.30;3.97;;;;;;;;;;5064803;28;20021;-64
2022/05/11 01:52:33;;;;;;;16.75;2.70;;;;;;;;;;5074226;28;20021;-64
2022/05/11 01:54:59;;;;;;;34.10;4.45;;;;;;;;;;5073511;28;20047;-65
2022/05/11 01:57:25;;;;;;;13.90;2.92;;;;;;;;;;5074290;28;20031;-64
2022/05/11 01:59:51;;;;;;;18.80;4.45;;;;;;;;;;5074180;28;20067;-64
2022/05/11 02:02:18;;;;;;;16.88;3.00;;;;;;;;;;5074041;28;20029;-64
2022/05/11 02:10:13;;;;;;;27.30;3.90;;;;;;;;;;5074130;28;20110;-65
2022/05/11 02:12:39;;;;;;;25.20;3.70;;;;;;;;;;5073465;28;20029;-65
2022/05/11 02:15:07;;;;;;;24.23;3.30;;;;;;;;;;5089839;28;20024;-64
2022/05/11 02:17:33;;;;;;;17.63;4.50;;;;;;;;;;5074447;28;20534;-65
2022/05/11 02:19:59;;;;;;;16.65;3.67;;;;;;;;;;5074025;28;20029;-65
2022/05/11 02:22:25;;;;;;;19.33;2.92;;;;;;;;;;5073658;28;20081;-64
2022/05/11 02:24:51;;;;;;;20.15;3.33;;;;;;;;;;5073718;28;20017;-64
2022/05/11 02:27:17;;;;;;;15.32;3.00;;;;;;;;;;5073593;28;20025;-65
2022/05/11 02:29:43;;;;;;;24.75;4.10;;;;;;;;;;5073001;28;20483;-64
2022/05/11 02:32:10;;;;;;;15.50;2.70;;;;;;;;;;5073766;28;20029;-65
2022/05/11 02:37:20;;;;;;;18.13;2.72;;;;;;;;;;5074066;28;20447;-64
2022/05/11 02:39:48;;;;;;;15.32;3.13;;;;;;;;;;5072823;28;20024;-64
2022/05/11 02:42:14;;;;;;;19.77;3.20;;;;;;;;;;5073625;28;20222;-64
2022/05/11 02:44:41;;;;;;;26.77;3.38;;;;;;;;;;5072694;28;20023;-65
2022/05/11 02:47:07;;;;;;;15.38;2.50;;;;;;;;;;5059133;28;20498;-65
2022/05/11 02:49:33;;;;;;;12.98;2.97;;;;;;;;;;5053327;28;20028;-64
2022/05/11 02:51:59;;;;;;;19.23;3.05;;;;;;;;;;5075852;28;20395;-64
2022/05/11 02:54:25;;;;;;;23.60;3.28;;;;;;;;;;5073251;28;20017;-64
2022/05/11 02:56:51;;;;;;;15.95;2.72;;;;;;;;;;5073302;28;20161;-64
2022/05/11 02:59:17;;;;;;;18.50;2.97;;;;;;;;;;5072948;28;20241;-64
2022/05/11 03:01:44;;;;;;;22.88;2.97;;;;;;;;;;5073357;28;20481;-64
2022/05/11 03:04:10;;;;;;;17.60;3.25;;;;;;;;;;5072336;28;20029;-65
2022/05/11 03:06:36;;;;;;;15.35;2.80;;;;;;;;;;5073243;28;20082;-64
2022/05/11 03:09:02;;;;;;;18.63;3.30;;;;;;;;;;5073296;28;20028;-64
2022/05/11 03:11:28;;;;;;;23.98;3.85;;;;;;;;;;5073184;28;20043;-64
2022/05/11 03:13:54;;;;;;;18.10;3.03;;;;;;;;;;5073187;28;20027;-64
2022/05/11 03:16:21;;;;;;;20.35;3.33;;;;;;;;;;5073133;28;20028;-65
2022/05/11 03:18:47;;;;;;;29.45;4.40;;;;;;;;;;5072559;28;20375;-64
2022/05/11 03:21:13;;;;;;;19.67;3.45;;;;;;;;;;5066105;28;20041;-64
2022/05/11 03:23:39;;;;;;;17.48;3.45;;;;;;;;;;5072496;28;20043;-64
2022/05/11 03:26:05;;;;;;;16.23;3.20;;;;;;;;;;5072664;28;20107;-65
2022/05/11 03:28:31;;;;;;;17.80;3.38;;;;;;;;;;5072494;28;20016;-64
2022/05/11 03:30:57;;;;;;;14.02;2.83;;;;;;;;;;5072446;28;20525;-64
2022/05/11 03:36:08;;;;;;;18.25;3.20;;;;;;;;;;5072883;28;20039;-64
2022/05/11 03:38:35;;;;;;;17.10;3.13;;;;;;;;;;5054594;28;20069;-64
2022/05/11 03:41:01;;;;;;;12.85;2.88;;;;;;;;;;5052514;28;20029;-64
2022/05/11 03:43:27;;;;;;;17.08;2.90;;;;;;;;;;5052531;28;20545;-65
2022/05/11 03:45:53;;;;;;;14.77;2.65;;;;;;;;;;5052619;28;20024;-64
2022/05/11 03:48:19;;;;;;;20.85;3.20;;;;;;;;;;5052560;28;20029;-64
2022/05/11 03:50:45;;;;;;;15.25;2.92;;;;;;;;;;5052271;28;20036;-64
2022/05/11 03:53:11;;;;;;;15.32;2.97;;;;;;;;;;5069044;28;20360;-65
2022/05/11 03:55:37;;;;;;;18.50;3.72;;;;;;;;;;5071103;28;20056;-64
2022/05/11 03:58:03;;;;;;;20.15;2.90;;;;;;;;;;5072041;28;20102;-64
2022/05/11 04:00:29;;;;;;;18.45;3.25;;;;;;;;;;5071620;28;20048;-64
2022/05/11 04:02:56;;;;;;;17.25;3.20;;;;;;;;;;5071281;28;20513;-64
2022/05/11 04:05:23;;;;;;;17.88;3.35;;;;;;;;;;5071867;28;20383;-64
2022/05/11 04:07:49;;;;;;;16.10;3.33;;;;;;;;;;5072053;28;20074;-64
2022/05/11 04:10:17;;;;;;;22.30;2.72;;;;;;;;;;5072297;28;20056;-64
2022/05/11 04:12:43;;;;;;;12.93;2.97;;;;;;;;;;5071249;28;20506;-64
2022/05/11 04:15:10;;;;;;;22.85;3.30;;;;;;;;;;5071750;28;20085;-64
2022/05/11 04:17:36;;;;;;;14.65;2.97;;;;;;;;;;5071515;28;20035;-64
2022/05/11 04:20:04;;;;;;;22.77;3.83;;;;;;;;;;5071560;28;20024;-64
2022/05/11 04:22:30;;;;;;;18.15;2.90;;;;;;;;;;5077337;28;20032;-64
2022/05/11 04:24:57;;;;;;;22.48;3.55;;;;;;;;;;5091925;28;20097;-64
2022/05/11 04:27:24;;;;;;;18.17;2.95;;;;;;;;;;5091202;28;20123;-64
2022/05/11 04:29:50;;;;;;;17.05;3.10;;;;;;;;;;5071020;28;20020;-64
2022/05/11 04:32:16;;;;;;;17.98;3.17;;;;;;;;;;5071202;28;20016;-64
2022/05/11 04:34:43;;;;;;;20.75;3.95;;;;;;;;;;5071333;28;20535;-64
2022/05/11 04:37:11;;;;;;;19.35;3.08;;;;;;;;;;5071187;28;20036;-64
2022/05/11 04:39:39;;;;;;;24.17;4.30;;;;;;;;;;5070267;28;20021;-64
2022/05/11 04:42:05;;;;;;;16.13;4.28;;;;;;;;;;5067082;28;20032;-64
2022/05/11 04:44:31;;;;;;;22.23;3.55;;;;;;;;;;5070303;28;20475;-65
2022/05/11 04:46:57;;;;;;;20.55;3.42;;;;;;;;;;5071143;28;20044;-65
2022/05/11 04:49:24;;;;;;;31.23;4.15;;;;;;;;;;5071010;28;20054;-64
2022/05/11 04:51:51;;;;;;;24.33;4.35;;;;;;;;;;5070954;28;20025;-64
2022/05/11 04:54:18;;;;;;;21.98;3.85;;;;;;;;;;5070878;28;20035;-64
2022/05/11 04:56:44;;;;;;;22.55;3.90;;;;;;;;;;5070745;28;20522;-65
2022/05/11 04:59:12;;;;;;;24.85;4.00;;;;;;;;;;5086462;28;20082;-64
2022/05/11 05:01:38;;;;;;;18.58;4.10;;;;;;;;;;5069962;28;20036;-64
2022/05/11 05:04:04;;;;;;;25.48;4.32;;;;;;;;;;5070823;28;20024;-65
2022/05/11 05:06:34;;;;;;;24.73;4.18;;;;;;;;;;5070892;28;20031;-64
2022/05/11 05:09:01;;;;;;;18.90;3.92;;;;;;;;;;5070636;28;20024;-64
2022/05/11 05:11:27;;;;;;;23.58;5.00;;;;;;;;;;5070692;28;20021;-65
2022/05/11 05:13:53;;;;;;;22.33;4.05;;;;;;;;;;5070905;28;20025;-64
2022/05/11 05:16:19;;;;;;;19.60;3.92;;;;;;;;;;5070610;28;20472;-65
2022/05/11 05:18:45;;;;;;;18.70;4.28;;;;;;;;;;5069647;28;20041;-64
2022/05/11 05:21:11;;;;;;;20.58;5.10;;;;;;;;;;5070795;28;20437;-65
2022/05/11 05:23:37;;;;;;;28.98;5.38;;;;;;;;;;5070503;28;20555;-64
2022/05/11 05:26:04;;;;;;;18.88;4.30;;;;;;;;;;5070584;28;20039;-64
2022/05/11 05:31:17;;;;;;;34.47;4.78;;;;;;;;;;5070393;28;20155;-65
2022/05/11 05:33:43;;;;;;;23.45;4.18;;;;;;;;;;5070571;28;20103;-64
2022/05/11 05:36:10;;;;;;;16.33;3.38;;;;;;;;;;5069665;28;20025;-64
2022/05/11 05:38:38;;;;;;;14.85;3.40;;;;;;;;;;5070356;28;20039;-65
2022/05/11 05:41:08;;;;;;;17.98;3.75;;;;;;;;;;5070413;28;20033;-64
2022/05/11 05:43:34;;;;;;;24.52;3.92;;;;;;;;;;5070468;28;20178;-63
2022/05/11 05:46:00;;;;;;;25.30;4.13;;;;;;;;;;5070604;28;20028;-63
2022/05/11 05:48:26;;;;;;;19.95;3.63;;;;;;;;;;5070601;28;20021;-64
2022/05/11 05:50:52;;;;;;;21.17;3.55;;;;;;;;;;5070522;28;20304;-64
2022/05/11 05:53:20;;;;;;;21.00;3.53;;;;;;;;;;5062486;28;20498;-64
2022/05/11 05:55:48;;;;;;;17.17;3.58;;;;;;;;;;5050112;28;20021;-65
2022/05/11 05:58:14;;;;;;;23.17;5.55;;;;;;;;;;5050140;28;20383;-65
2022/05/11 06:00:40;;;;;;;19.70;3.70;;;;;;;;;;5048543;28;20084;-64
2022/05/11 06:03:06;;;;;;;25.13;3.80;;;;;;;;;;5050116;28;20056;-64
2022/05/11 06:05:32;;;;;;;20.10;3.70;;;;;;;;;;5050042;28;20476;-65
2022/05/11 06:07:58;;;;;;;25.38;5.13;;;;;;;;;;5065579;28;20033;-64
2022/05/11 06:10:25;;;;;;;19.15;3.22;;;;;;;;;;5050715;28;20541;-66
2022/05/11 06:12:52;;;;;;;23.33;3.40;;;;;;;;;;5076047;28;20116;-65
2022/05/11 06:15:18;;;;;;;18.20;3.30;;;;;;;;;;5069971;28;20498;-64
2022/05/11 06:17:44;;;;;;;18.27;3.33;;;;;;;;;;5070165;28;20028;-64
2022/05/11 06:20:11;;;;;;;22.40;3.17;;;;;;;;;;5071638;28;20037;-65
2022/05/11 06:22:37;;;;;;;16.35;3.17;;;;;;;;;;5073609;28;20039;-64
2022/05/11 06:25:04;;;;;;;21.35;3.60;;;;;;;;;;5073976;28;20017;-63
2022/05/11 06:27:30;;;;;;;20.98;3.60;;;;;;;;;;5088080;28;20028;-64
2022/05/11 06:29:57;;;;;;;18.17;2.80;;;;;;;;;;5073687;28;20032;-65
2022/05/11 06:32:24;;;;;;;16.05;2.63;;;;;;;;;;5073819;28;20554;-64
2022/05/11 06:34:51;;;;;;;18.02;2.65;;;;;;;;;;5073499;28;20033;-65
2022/05/11 06:37:17;;;;;;;16.52;2.80;;;;;;;;;;5073472;28;20379;-64
2022/05/11 06:39:44;;;;;;;19.02;3.45;;;;;;;;;;5073142;28;20024;-64
2022/05/11 06:42:12;;;;;;;16.30;2.53;;;;;;;;;;5068213;28;20032;-64
2022/05/11 06:44:38;;;;;;;20.20;3.67;;;;;;;;;;5072775;28;20017;-64
2022/05/11 06:47:04;;;;;;;18.15;2.90;;;;;;;;;;5073179;28;20039;-64
2022/05/11 06:49:31;;;;;;;17.77;3.20;;;;;;;;;;5073210;28;20036;-64
2022/05/11 06:51:57;;;;;;;15.70;2.58;;;;;;;;;;5072839;28;20067;-64
2022/05/11 06:59:57;;;;;;;18.33;3.15;;;;;;;;;;5075173;28;20079;-65
2022/05/11 07:02:24;;;;;;;15.75;3.00;;;;;;;;;;5082680;28;20486;-64
2022/05/11 07:04:50;;;;;;;14.07;2.55;;;;;;;;;;5091037;28;20021;-62
2022/05/11 07:07:17;;;;;;;17.20;2.58;;;;;;;;;;5107802;28;20457;-65
2022/05/11 07:09:43;;;;;;;24.10;3.00;;;;;;;;;;5088556;28;20026;-65
2022/05/11 07:12:21;;;;;;;14.25;2.50;;;;;;;;;;5080848;28;20029;-64
2022/05/11 07:14:57;;;;;;;16.00;3.10;;;;;;;;;;5072324;28;20405;-64
2022/05/11 07:17:38;;;;;;;19.33;2.72;;;;;;;;;;5072267;28;20056;-64
2022/05/11 07:20:12;;;;;;;19.02;2.58;;;;;;;;;;5074573;28;20245;-64
2022/05/11 07:22:38;;;;;;;22.10;3.47;;;;;;;;;;5092409;28;20032;-64
2022/05/11 07:25:05;;;;;;;19.42;2.92;;;;;;;;;;5091574;28;20031;-65
2022/05/11 07:27:31;;;;;;;11.75;2.28;;;;;;;;;;5092759;28;20040;-65
2022/05/11 07:29:57;;;;;;;21.55;3.33;;;;;;;;;;5083909;28;20119;-65
2022/05/11 07:32:25;;;;;;;17.77;2.88;;;;;;;;;;5072254;28;20085;-64
2022/05/11 07:34:52;;;;;;;19.50;3.60;;;;;;;;;;5084487;28;20040;-63
2022/05/11 07:37:18;;;;;;;16.13;2.90;;;;;;;;;;5072677;28;20073;-63
2022/05/11 07:39:44;;;;;;;14.73;2.15;;;;;;;;;;5071445;28;20047;-64
2022/05/11 07:42:10;;;;;;;9.57;2.08;;;;;;;;;;5088216;28;20036;-64
2022/05/11 07:44:36;;;;;;;14.10;2.13;;;;;;;;;;5091463;28;20367;-64
2022/05/11 07:47:03;;;;;;;16.08;2.92;;;;;;;;;;5092764;28;20028;-64
2022/05/11 07:49:29;;;;;;;15.35;2.25;;;;;;;;;;5091929;28;20031;-65
2022/05/11 07:51:56;;;;;;;16.98;2.88;;;;;;;;;;5082911;28;20025;-63
2022/05/11 07:54:23;;;;;;;12.25;2.30;;;;;;;;;;5068432;28;20017;-64
2022/05/11 08:02:22;;;;;;;16.25;2.55;;;;;;;;;;5071380;28;20082;-63
2022/05/11 08:04:48;;;;;;;17.08;2.00;;;;;;;;;;5071163;28;20020;-64
2022/05/11 08:07:14;;;;;;;15.07;2.60;;;;;;;;;;5071794;28;20035;-64
2022/05/11 08:09:41;;;;;;;18.00;2.67;;;;;;;;;;5076527;28;20070;-65
2022/05/11 08:12:07;;;;;;;12.80;2.38;;;;;;;;;;5067070;28;20400;-63
2022/05/11 08:14:33;;;;;;;17.08;2.75;;;;;;;;;;5051621;28;20025;-65
2022/05/11 08:16:59;;;;;;;17.63;2.60;;;;;;;;;;5051529;28;20017;-65
2022/05/11 08:19:26;;;;;;;19.40;3.28;;;;;;;;;;5051454;28;20031;-65
2022/05/11 08:21:54;;;;;;;18.83;2.25;;;;;;;;;;5051480;28;20112;-64
2022/05/11 08:24:21;;;;;;;13.02;2.92;;;;;;;;;;5073365;28;20568;-64
2022/05/11 08:26:50;;;;;;;22.38;2.67;;;;;;;;;;5081810;28;20028;-65
2022/05/11 08:33:19;;;;;;;17.45;2.28;;;;;;;;;;5051340;28;20024;-65
2022/05/11 08:34:49;;;;;;;14.80;2.35;;;;;;;;;;5079629;28;20082;-65
2022/05/11 08:37:15;;;;;;;15.50;2.35;;;;;;;;;;5071287;28;20032;-64
2022/05/11 08:39:41;;;;;;;19.42;2.35;;;;;;;;;;5074654;28;20029;-65
2022/05/11 08:42:08;;;;;;;14.63;2.20;;;;;;;;;;5071717;28;20037;-65
2022/05/11 08:44:36;;;;;;;16.77;2.50;;;;;;;;;;5053093;28;20040;-65
2022/05/11 08:47:06;;;;;;;19.23;2.72;;;;;;;;;;5082963;28;20028;-64
2022/05/11 08:49:49;;;;;;;12.18;2.20;;;;;;;;;;5070976;28;20040;-64
2022/05/11 08:52:22;;;;;;;26.30;2.83;;;;;;;;;;5070733;28;20025;-65
2022/05/11 08:54:55;;;;;;;17.27;2.60;;;;;;;;;;5070896;28;20060;-65
2022/05/11 08:57:26;;;;;;;18.23;2.23;;;;;;;;;;5070975;28;20020;-65
2022/05/11 08:59:57;;;;;;;13.02;2.35;;;;;;;;;;5066846;28;20048;-65
2022/05/11 09:02:26;;;;;;;15.25;2.95;;;;;;;;;;5050883;28;20060;-65
2022/05/11 09:04:58;;;;;;;15.70;3.10;;;;;;;;;;5057835;28;20107;-65
2022/05/11 09:07:24;;;;;;;14.23;2.88;;;;;;;;;;5069747;28;20367;-66
2022/05/11 09:09:54;;;;;;;15.20;2.28;;;;;;;;;;5077645;28;20024;-65
2022/05/11 09:12:21;;;;;;;16.95;2.70;;;;;;;;;;5072674;28;20521;-65
2022/05/11 09:14:51;;;;;;;13.82;2.63;;;;;;;;;;5084109;28;20391;-64
2022/05/11 09:17:32;;;;;;;14.15;2.20;;;;;;;;;;5066663;28;20056;-65
2022/05/11 09:20:08;;;;;;;14.52;2.20;;;;;;;;;;5052301;28;20025;-65
2022/05/11 09:22:37;;;;;;;13.80;2.08;;;;;;;;;;5050206;28;20029;-64
2022/05/11 09:25:05;;;;;;;13.13;1.80;;;;;;;;;;5058420;28;20181;-64
2022/05/11 09:27:33;;;;;;;16.02;2.60;;;;;;;;;;5061381;28;20422;-64
2022/05/11 09:30:01;;;;;;;11.95;2.00;;;;;;;;;;5065248;28;20028;-65
2022/05/11 09:32:34;;;;;;;14.55;2.13;;;;;;;;;;5063036;28;20421;-65
2022/05/11 09:35:16;;;;;;;13.95;2.20;;;;;;;;;;5067341;28;20060;-65
2022/05/11 09:37:44;;;;;;;13.00;2.15;;;;;;;;;;5050736;28;20154;-64
2022/05/11 09:40:20;;;;;;;14.75;2.15;;;;;;;;;;5070306;28;20107;-65
2022/05/11 09:42:55;;;;;;;12.88;2.22;;;;;;;;;;5069503;28;20032;-64
2022/05/11 09:45:39;;;;;;;13.00;2.53;;;;;;;;;;5061067;28;20974;-64
2022/05/11 09:48:21;;;;;;;11.38;1.95;;;;;;;;;;5069266;28;20470;-64
2022/05/11 09:50:52;;;;;;;14.18;2.28;;;;;;;;;;5065261;28;20409;-66
2022/05/11 09:53:25;;;;;;;15.05;2.65;;;;;;;;;;5057417;28;20391;-65
2022/05/11 09:55:51;;;;;;;11.18;2.17;;;;;;;;;;5060076;28;20025;-65
2022/05/11 09:58:28;;;;;;;15.38;1.95;;;;;;;;;;5086336;28;20032;-65
2022/05/11 10:01:06;;;;;;;15.68;2.17;;;;;;;;;;5069209;28;20098;-65
2022/05/11 10:03:32;;;;;;;16.17;2.17;;;;;;;;;;5058153;28;20158;-65
2022/05/11 10:05:59;;;;;;;17.08;2.10;;;;;;;;;;5074779;28;20035;-65
2022/05/11 10:08:31;;;;;;;17.35;2.88;;;;;;;;;;5066167;28;20033;-65
2022/05/11 10:11:06;;;;;;;15.57;2.47;;;;;;;;;;5065063;28;20028;-65
2022/05/11 10:13:54;;;;;;;12.43;2.25;;;;;;;;;;5069311;28;20063;-65
2022/05/11 10:22:22;;;;;;;17.70;3.30;;;;;;;;;;5055359;28;20170;-65
2022/05/11 10:25:01;;;;;;;15.10;3.00;;;;;;;;;;5077740;28;20388;-66
2022/05/11 10:27:32;;;;;;;24.20;3.60;;;;;;;;;;5061155;28;20035;-65
2022/05/11 10:30:04;;;;;;;13.75;2.25;;;;;;;;;;5083366;28;20070;-64
2022/05/11 10:32:33;;;;;;;12.20;2.00;;;;;;;;;;5073425;28;20021;-65
2022/05/11 10:35:23;;;;;;;12.32;2.38;;;;;;;;;;5073625;28;20070;-65
2022/05/11 10:37:58;;;;;;;12.27;2.53;;;;;;;;;;5070447;28;20036;-65
2022/05/11 10:40:43;;;;;;;16.30;2.38;;;;;;;;;;5073502;28;20028;-65
2022/05/11 10:43:19;;;;;;;14.90;3.83;;;;;;;;;;5058748;28;20033;-65
2022/05/11 10:45:51;;;;;;;13.48;2.33;;;;;;;;;;5051959;28;20459;-66
2022/05/11 10:48:21;;;;;;;16.75;3.03;;;;;;;;;;5063501;28;20398;-66
2022/05/11 10:51:05;;;;;;;10.07;2.33;;;;;;;;;;5071686;28;20040;-65
2022/05/11 10:53:34;;;;;;;17.42;2.88;;;;;;;;;;5073034;28;20103;-66
2022/05/11 10:56:27;;;;;;;17.25;2.90;;;;;;;;;;5073129;28;20422;-66
2022/05/11 10:59:08;;;;;;;15.88;2.28;;;;;;;;;;5067923;28;20037;-66
2022/05/11 11:01:44;;;;;;;13.05;2.30;;;;;;;;;;5068299;28;20048;-65
2022/05/11 11:04:10;;;;;;;13.73;2.33;;;;;;;;;;5083722;28;20111;-65
2022/05/11 11:09:41;;;;;;;11.30;2.30;;;;;;;;;;5087292;28;20082;-65
2022/05/11 11:12:48;;;;;;;12.32;2.38;;;;;;;;;;5077411;28;20024;-65
2022/05/11 11:15:15;;;;;;;16.75;2.55;;;;;;;;;;5061931;28;20023;-66
2022/05/11 11:17:43;;;;;;;18.45;2.53;;;;;;;;;;5069436;28;20107;-66
2022/05/11 11:20:10;;;;;;;20.75;2.85;;;;;;;;;;5070686;28;20036;-66
2022/05/11 11:22:55;;;;;;;13.73;2.45;;;;;;;;;;5083433;28;20123;-66
2022/05/11 11:25:22;;;;;;;14.43;2.30;;;;;;;;;;5072218;28;20029;-66
2022/05/11 11:28:12;;;;;;;19.25;2.50;;;;;;;;;;5072012;28;20024;-66
2022/05/11 11:30:39;;;;;;;15.35;2.17;;;;;;;;;;5072140;28;20031;-65
2022/05/11 11:33:12;;;;;;;17.73;2.80;;;;;;;;;;5066350;28;20395;-65
2022/05/11 11:35:53;;;;;;;13.63;2.43;;;;;;;;;;5072269;28;20084;-65
2022/05/11 11:38:43;;;;;;;16.83;2.60;;;;;;;;;;5072172;28;20064;-65
2022/05/11 11:41:15;;;;;;;12.70;2.50;;;;;;;;;;5071611;28;20036;-65
2022/05/11 11:43:44;;;;;;;7.55;1.92;;;;;;;;;;5071724;28;20115;-65
2022/05/11 11:46:27;;;;;;;19.00;2.78;;;;;;;;;;5072231;28;20025;-66
2022/05/11 11:49:02;;;;;;;19.40;2.72;;;;;;;;;;5052126;28;20043;-65
2022/05/11 11:51:32;;;;;;;14.77;2.67;;;;;;;;;;5066972;28;20021;-65
2022/05/11 11:53:59;;;;;;;17.83;2.92;;;;;;;;;;5078965;28;20056;-66
2022/05/11 11:56:25;;;;;;;13.18;2.55;;;;;;;;;;5075655;28;20497;-66
2022/05/11 11:59:08;;;;;;;19.48;3.05;;;;;;;;;;5084780;28;20029;-66
2022/05/11 12:01:46;;;;;;;13.20;2.25;;;;;;;;;;5083130;28;20047;-65
2022/05/11 12:04:32;;;;;;;15.77;2.45;;;;;;;;;;5071551;28;20089;-65
2022/05/11 12:16:02;;;;;;;15.23;2.58;;;;;;;;;;5052002;28;20514;-65
2022/05/11 12:18:33;;;;;;;14.63;3.05;;;;;;;;;;5057341;28;20360;-65
2022/05/11 12:21:00;;;;;;;16.77;2.33;;;;;;;;;;5071355;28;20020;-65
2022/05/11 12:23:29;;;;;;;12.77;2.20;;;;;;;;;;5070998;28;20020;-66
2022/05/11 12:25:57;;;;;;;17.42;2.60;;;;;;;;;;5053962;28;20103;-66
2022/05/11 12:28:27;;;;;;;11.30;2.10;;;;;;;;;;5071241;28;20108;-66
2022/05/11 12:30:53;;;;;;;16.20;2.53;;;;;;;;;;5071512;28;20111;-66
2022/05/11 12:33:24;;;;;;;19.67;2.60;;;;;;;;;;5071074;28;20124;-66
2022/05/11 12:35:50;;;;;;;13.73;2.13;;;;;;;;;;5071151;28;20029;-66
2022/05/11 12:38:30;;;;;;;10.77;2.50;;;;;;;;;;5070710;28;20025;-66
2022/05/11 12:40:58;;;;;;;16.33;2.28;;;;;;;;;;5063116;28;20028;-67
2022/05/11 12:43:34;;;;;;;11.35;2.42;;;;;;;;;;5060006;28;20031;-66
2022/05/11 12:46:21;;;;;;;14.32;2.22;;;;;;;;;;5071052;28;20036;-66
2022/05/11 12:48:55;;;;;;;13.70;2.38;;;;;;;;;;5070894;28;20032;-66
2022/05/11 12:51:44;;;;;;;17.38;2.50;;;;;;;;;;5071162;28;20033;-66
2022/05/11 12:54:18;;;;;;;14.45;4.05;;;;;;;;;;5070284;28;20044;-65
2022/05/11 12:56:44;;;;;;;12.05;2.30;;;;;;;;;;5070608;28;20024;-66
2022/05/11 12:59:22;;;;;;;11.32;2.05;;;;;;;;;;5061976;28;20040;-67
2022/05/11 13:01:48;;;;;;;17.08;2.47;;;;;;;;;;5070695;28;20048;-64
2022/05/11 13:04:19;;;;;;;10.70;2.38;;;;;;;;;;5071853;28;20028;-65
2022/05/11 13:06:47;;;;;;;9.07;2.40;;;;;;;;;;5071226;28;20036;-66
2022/05/11 13:09:19;;;;;;;14.45;2.53;;;;;;;;;;5071168;28;20429;-64
2022/05/11 13:11:46;;;;;;;12.80;2.60;;;;;;;;;;5070877;28;20039;-65
2022/05/11 13:14:16;;;;;;;11.82;2.22;;;;;;;;;;5083596;28;20360;-65
2022/05/11 13:16:53;;;;;;;11.57;2.00;;;;;;;;;;5051603;28;20033;-66
2022/05/11 13:19:25;;;;;;;15.85;2.70;;;;;;;;;;5069292;28;20089;-65
2022/05/11 13:21:53;;;;;;;14.75;2.85;;;;;;;;;;5069054;28;20086;-66
2022/05/11 13:24:40;;;;;;;16.17;2.28;;;;;;;;;;5066580;28;20531;-66
2022/05/11 13:27:26;;;;;;;13.35;2.35;;;;;;;;;;5070194;28;20029;-66
2022/05/11 13:30:03;;;;;;;16.58;2.70;;;;;;;;;;5085710;28;20044;-66
2022/05/11 13:32:29;;;;;;;11.80;1.90;;;;;;;;;;5084050;28;20022;-65
2022/05/11 13:35:13;;;;;;;14.70;2.40;;;;;;;;;;5095073;28;20088;-65
2022/05/11 13:37:40;;;;;;;11.32;2.47;;;;;;;;;;5087690;28;20031;-66
2022/05/11 13:40:06;;;;;;;12.23;2.90;;;;;;;;;;5074794;28;20024;-65
2022/05/11 13:42:32;;;;;;;17.98;2.95;;;;;;;;;;5083265;28;20037;-65
2022/05/11 13:45:02;;;;;;;21.38;3.00;;;;;;;;;;5075550;28;20028;-67
2022/05/11 13:50:31;;;;;;;14.02;3.10;;;;;;;;;;5079960;28;20043;-68
2022/05/11 13:52:58;;;;;;;15.13;3.10;;;;;;;;;;5076373;28;20028;-71
2022/05/11 13:55:36;;;;;;;16.50;3.10;;;;;;;;;;5075064;28;20020;-70
2022/05/11 13:58:21;;;;;;;13.18;2.95;;;;;;;;;;5057287;28;20104;-69
2022/05/11 14:00:47;;;;;;;14.45;2.60;;;;;;;;;;5074920;28;20503;-68
2022/05/11 14:03:15;;;;;;;13.95;2.90;;;;;;;;;;5090853;28;20028;-68
2022/05/11 14:05:41;;;;;;;15.35;2.80;;;;;;;;;;5096735;28;20053;-67
2022/05/11 14:08:07;;;;;;;18.35;3.00;;;;;;;;;;5053797;28;20147;-67
2022/05/11 14:10:34;;;;;;;13.20;2.58;;;;;;;;;;5053990;28;20029;-67
2022/05/11 14:13:00;;;;;;;13.60;2.70;;;;;;;;;;5053942;28;20025;-67
2022/05/11 14:15:26;;;;;;;14.10;3.05;;;;;;;;;;5078552;28;20441;-67
2022/05/11 14:17:52;;;;;;;15.73;2.90;;;;;;;;;;5074157;28;20032;-67
2022/05/11 14:20:22;;;;;;;21.00;3.50;;;;;;;;;;5073829;28;20033;-67
2022/05/11 14:22:49;;;;;;;15.05;2.97;;;;;;;;;;5088969;28;20041;-66
2022/05/11 14:25:16;;;;;;;12.25;3.00;;;;;;;;;;5073969;28;20028;-67
2022/05/11 14:27:42;;;;;;;13.45;3.30;;;;;;;;;;5073966;28;20035;-66
2022/05/11 14:30:09;;;;;;;11.98;3.28;;;;;;;;;;5073981;28;20039;-66
2022/05/11 14:32:46;;;;;;;16.80;3.33;;;;;;;;;;5073917;28;20027;-67
2022/05/11 14:35:13;;;;;;;13.93;3.10;;;;;;;;;;5089242;28;20029;-67
2022/05/11 14:37:40;;;;;;;12.63;3.80;;;;;;;;;;5073230;28;20028;-68
2022/05/11 14:40:08;;;;;;;17.90;3.67;;;;;;;;;;5071835;28;20028;-67
2022/05/11 14:42:34;;;;;;;21.95;3.45;;;;;;;;;;5088663;28;20033;-67
2022/05/11 14:45:01;;;;;;;15.77;3.10;;;;;;;;;;5073601;28;20021;-66
2022/05/11 14:47:27;;;;;;;12.45;3.30;;;;;;;;;;5073334;28;20542;-67
2022/05/11 14:49:53;;;;;;;13.43;3.60;;;;;;;;;;5073256;28;20017;-67
2022/05/11 14:52:19;;;;;;;14.85;3.13;;;;;;;;;;5073231;28;20077;-66
2022/05/11 14:54:46;;;;;;;10.38;3.25;;;;;;;;;;5072913;28;20017;-66
2022/05/11 15:02:42;;;;;;;14.60;3.60;;;;;;;;;;5072680;28;20437;-66
2022/05/11 15:05:11;;;;;;;19.77;3.25;;;;;;;;;;5073043;28;20020;-67
2022/05/11 15:07:38;;;;;;;18.30;4.15;;;;;;;;;;5073084;28;20036;-66
2022/05/11 15:10:04;;;;;;;25.02;4.68;;;;;;;;;;5072898;28;20033;-65
2022/05/11 15:15:15;;;;;;;15.18;3.05;;;;;;;;;;5064683;28;20035;-66
2022/05/11 15:17:42;;;;;;;10.48;3.10;;;;;;;;;;5072775;28;20060;-66
2022/05/11 15:20:10;;;;;;;17.02;3.55;;;;;;;;;;5072581;28;20104;-65
2022/05/11 15:22:36;;;;;;;12.75;3.10;;;;;;;;;;5072689;28;20040;-66
2022/05/11 15:25:03;;;;;;;16.83;3.83;;;;;;;;;;5072364;28;20025;-67
2022/05/11 15:27:29;;;;;;;16.42;3.53;;;;;;;;;;5072891;28;20043;-67
2022/05/11 15:29:55;;;;;;;17.98;3.65;;;;;;;;;;5072861;28;20024;-66
2022/05/11 15:32:23;;;;;;;18.95;3.00;;;;;;;;;;5056975;28;20167;-66
2022/05/11 15:34:49;;;;;;;26.85;6.22;;;;;;;;;;5052942;28;20498;-66
2022/05/11 15:37:15;;;;;;;17.55;3.78;;;;;;;;;;5066212;28;20056;-67
2022/05/11 15:39:42;;;;;;;19.73;4.25;;;;;;;;;;5072265;28;20024;-67